createdAt,value
2019-03-22T00:02:15.239Z,23.17
2019-03-22T00:04:41.818Z,24.37
2019-03-22T00:07:08.057Z,25.80
2019-03-22T00:09:34.284Z,24.33
2019-03-22T00:12:00.515Z,24.57
2019-03-22T00:14:26.761Z,23.53
2019-03-22T00:16:52.999Z,24.47
2019-03-22T00:19:19.227Z,25.67
2019-03-22T00:21:45.471Z,26.77
2019-03-22T00:24:11.692Z,27.00
2019-03-22T00:26:37.931Z,24.97
2019-03-22T00:29:04.491Z,27.73
2019-03-22T00:31:30.697Z,28.37
2019-03-22T00:33:56.932Z,28.93
2019-03-22T00:36:23.148Z,28.07
2019-03-22T00:38:49.716Z,27.70
2019-03-22T00:41:15.941Z,29.93
2019-03-22T00:43:42.511Z,30.20
2019-03-22T00:46:08.728Z,30.40
2019-03-22T00:48:34.974Z,27.87
2019-03-22T00:51:01.468Z,31.63
2019-03-22T00:53:27.711Z,30.20
2019-03-22T00:55:53.935Z,29.70
2019-03-22T00:58:20.171Z,28.17
2019-03-22T01:00:46.396Z,28.13
2019-03-22T01:03:12.638Z,28.93
2019-03-22T01:05:38.959Z,28.70
2019-03-22T01:08:05.206Z,27.40
2019-03-22T01:10:31.627Z,28.97
2019-03-22T01:12:57.868Z,26.10
2019-03-22T01:15:24.095Z,26.93
2019-03-22T01:17:50.316Z,25.00
2019-03-22T01:20:16.578Z,25.20
2019-03-22T01:22:43.158Z,24.30
2019-03-22T01:25:10.013Z,24.13
2019-03-22T01:27:40.832Z,24.10
2019-03-22T01:30:10.476Z,23.97
2019-03-22T01:32:36.704Z,24.47
2019-03-22T01:35:05.241Z,25.83
2019-03-22T01:37:31.466Z,25.37
2019-03-22T01:39:58.024Z,25.20
2019-03-22T01:42:24.670Z,24.93
2019-03-22T01:44:50.891Z,24.70
2019-03-22T01:47:17.151Z,24.63
2019-03-22T01:49:43.368Z,25.47
2019-03-22T01:52:09.623Z,24.33
2019-03-22T01:54:35.876Z,26.27
2019-03-22T01:57:02.196Z,26.03
2019-03-22T01:59:28.795Z,25.97
2019-03-22T02:01:55.020Z,27.33
2019-03-22T02:04:21.758Z,27.20
2019-03-22T02:06:48.086Z,26.10
2019-03-22T02:09:14.333Z,27.43
2019-03-22T02:11:40.855Z,27.13
2019-03-22T02:14:07.203Z,26.93
2019-03-22T02:16:33.424Z,28.20
2019-03-22T02:18:59.647Z,27.53
2019-03-22T02:21:26.383Z,26.57
2019-03-22T02:23:52.612Z,27.80
2019-03-22T02:26:18.859Z,25.17
2019-03-22T02:28:45.080Z,26.93
2019-03-22T02:31:11.330Z,26.03
2019-03-22T02:33:37.545Z,23.43
2019-03-22T02:36:03.880Z,26.57
2019-03-22T02:38:30.102Z,26.33
2019-03-22T02:40:56.339Z,25.37
2019-03-22T02:43:22.944Z,25.20
2019-03-22T02:45:49.181Z,25.77
2019-03-22T02:48:15.413Z,24.83
2019-03-22T02:50:41.655Z,24.60
2019-03-22T02:53:07.984Z,26.43
2019-03-22T02:55:34.201Z,26.03
2019-03-22T02:58:00.536Z,25.00
2019-03-22T03:00:26.942Z,25.33
2019-03-22T03:02:53.181Z,25.10
2019-03-22T03:05:19.409Z,24.90
2019-03-22T03:07:46.159Z,25.27
2019-03-22T03:10:14.076Z,24.97
2019-03-22T03:12:40.912Z,24.60
2019-03-22T03:15:13.451Z,25.13
2019-03-22T03:17:39.701Z,26.10
2019-03-22T03:20:09.681Z,25.30
2019-03-22T03:22:35.907Z,25.47
2019-03-22T03:25:04.748Z,25.60
2019-03-22T03:27:31.255Z,25.67
2019-03-22T03:29:57.926Z,25.20
2019-03-22T03:32:24.275Z,25.50
2019-03-22T03:34:50.879Z,24.70
2019-03-22T03:37:17.117Z,25.50
2019-03-22T03:39:43.363Z,25.27
2019-03-22T03:42:09.636Z,25.10
2019-03-22T03:44:35.987Z,25.30
2019-03-22T03:47:02.200Z,24.77
2019-03-22T03:49:28.457Z,25.73
2019-03-22T03:51:54.684Z,24.53
2019-03-22T03:54:20.907Z,25.33
2019-03-22T03:56:47.152Z,25.60
2019-03-22T03:59:13.372Z,27.93
2019-03-22T04:01:39.634Z,25.10
2019-03-22T04:04:05.855Z,24.70
2019-03-22T04:06:32.112Z,26.30
2019-03-22T04:08:58.324Z,26.97
2019-03-22T04:11:24.548Z,24.03
2019-03-22T04:13:50.788Z,27.43
2019-03-22T04:16:17.130Z,25.37
2019-03-22T04:18:43.403Z,28.20
2019-03-22T04:21:09.736Z,25.70
2019-03-22T04:23:35.987Z,25.43
2019-03-22T04:26:02.222Z,25.70
2019-03-22T04:28:28.478Z,26.27
2019-03-22T04:30:54.692Z,26.10
2019-03-22T04:33:20.942Z,25.07
2019-03-22T04:35:47.165Z,24.13
2019-03-22T04:38:13.925Z,26.77
2019-03-22T04:40:40.186Z,25.53
2019-03-22T04:43:06.451Z,25.30
2019-03-22T04:45:34.988Z,25.97
2019-03-22T04:48:17.079Z,25.23
2019-03-22T04:50:46.116Z,24.93
2019-03-22T04:53:16.140Z,25.37
2019-03-22T04:55:46.207Z,23.70
2019-03-22T04:58:13.540Z,25.40
2019-03-22T05:00:41.295Z,24.70
2019-03-22T05:03:08.643Z,24.93
2019-03-22T05:05:35.270Z,23.97
2019-03-22T05:08:02.901Z,25.27
2019-03-22T05:10:29.743Z,24.73
2019-03-22T05:12:58.880Z,26.67
2019-03-22T05:15:25.532Z,24.80
2019-03-22T05:17:51.972Z,25.90
2019-03-22T05:20:20.923Z,25.70
2019-03-22T05:22:48.685Z,27.17
2019-03-22T05:25:17.041Z,25.40
2019-03-22T05:27:44.668Z,22.23
2019-03-22T05:30:38.946Z,24.43
2019-03-22T05:33:05.516Z,25.50
2019-03-22T05:35:31.776Z,25.40
2019-03-22T05:37:58.035Z,26.83
2019-03-22T05:40:24.278Z,26.83
2019-03-22T05:42:50.608Z,26.67
2019-03-22T05:45:17.981Z,26.90
2019-03-22T05:47:44.260Z,24.97
2019-03-22T05:50:10.540Z,27.37
2019-03-22T05:52:39.521Z,27.23
2019-03-22T05:55:06.795Z,27.83
2019-03-22T05:57:33.042Z,28.70
2019-03-22T05:59:59.367Z,28.90
2019-03-22T06:02:26.058Z,27.90
2019-03-22T06:04:52.267Z,27.73
2019-03-22T06:07:18.521Z,31.30
2019-03-22T06:09:44.755Z,30.60
2019-03-22T06:12:11.243Z,29.33
2019-03-22T06:14:37.481Z,31.90
2019-03-22T06:17:04.294Z,29.83
2019-03-22T06:19:30.562Z,31.40
2019-03-22T06:21:57.127Z,29.40
2019-03-22T06:24:23.364Z,30.70
2019-03-22T06:26:49.634Z,30.17
2019-03-22T06:29:15.877Z,29.83
2019-03-22T06:31:42.159Z,30.40
2019-03-22T06:34:08.404Z,29.90
2019-03-22T06:36:34.616Z,31.50
2019-03-22T06:39:00.880Z,32.23
2019-03-22T06:41:27.101Z,33.67
2019-03-22T06:43:53.718Z,31.83
2019-03-22T06:46:19.944Z,31.73
2019-03-22T06:48:46.480Z,32.80
2019-03-22T06:51:13.122Z,30.87
2019-03-22T06:53:39.350Z,31.93
2019-03-22T06:56:05.691Z,33.57
2019-03-22T06:58:31.959Z,32.47
2019-03-22T07:00:58.287Z,34.97
2019-03-22T07:03:24.581Z,34.60
2019-03-22T07:05:50.831Z,32.20
2019-03-22T07:08:17.092Z,31.50
2019-03-22T07:10:43.356Z,32.07
2019-03-22T07:13:09.600Z,32.50
2019-03-22T07:15:35.848Z,30.70
2019-03-22T07:18:02.285Z,32.70
2019-03-22T07:20:28.560Z,31.47
2019-03-22T07:22:55.128Z,32.57
2019-03-22T07:25:21.417Z,31.77
2019-03-22T07:27:47.632Z,32.90
2019-03-22T07:30:19.064Z,34.13
2019-03-22T07:32:43.661Z,33.70
2019-03-22T07:35:10.008Z,33.30
2019-03-22T07:37:36.235Z,31.40
2019-03-22T07:40:05.308Z,31.20
2019-03-22T07:42:31.579Z,32.17
2019-03-22T07:44:57.847Z,29.80
2019-03-22T07:47:24.110Z,33.77
2019-03-22T07:49:50.352Z,30.70
2019-03-22T07:52:16.638Z,33.63
2019-03-22T07:54:43.176Z,30.57
2019-03-22T07:57:09.439Z,30.37
2019-03-22T07:59:35.668Z,31.77
2019-03-22T08:02:01.904Z,31.70
2019-03-22T08:04:28.225Z,31.60
2019-03-22T08:06:54.811Z,30.00
2019-03-22T08:09:21.041Z,31.40
2019-03-22T08:11:47.418Z,32.03
2019-03-22T08:14:16.247Z,32.33
2019-03-22T08:16:41.833Z,33.83
2019-03-22T08:19:08.171Z,32.63
2019-03-22T08:21:34.457Z,31.93
2019-03-22T08:24:20.563Z,32.93
2019-03-22T08:26:46.771Z,30.67
2019-03-22T08:29:13.026Z,31.60
2019-03-22T08:31:39.634Z,31.17
2019-03-22T08:34:06.168Z,28.93
2019-03-22T08:36:32.403Z,31.50
2019-03-22T08:38:58.766Z,31.20
2019-03-22T08:41:25.065Z,30.00
2019-03-22T08:43:51.293Z,30.20
2019-03-22T08:46:17.530Z,28.63
2019-03-22T08:48:43.788Z,27.87
2019-03-22T08:51:10.126Z,27.83
2019-03-22T08:53:36.359Z,27.87
2019-03-22T08:56:02.831Z,28.67
2019-03-22T08:58:29.104Z,25.67
2019-03-22T09:00:57.717Z,25.43
2019-03-22T09:03:23.384Z,25.53
2019-03-22T09:05:49.736Z,24.67
2019-03-22T09:08:16.272Z,27.60
2019-03-22T09:10:42.616Z,26.60
2019-03-22T09:13:08.866Z,26.90
2019-03-22T09:15:40.950Z,25.83
2019-03-22T09:18:03.355Z,26.63
2019-03-22T09:20:29.763Z,25.90
2019-03-22T09:22:55.972Z,24.30
2019-03-22T09:25:22.270Z,25.50
2019-03-22T09:27:48.472Z,25.20
2019-03-22T09:30:14.931Z,25.53
2019-03-22T09:32:41.164Z,25.70
2019-03-22T09:35:07.356Z,28.27
2019-03-22T09:37:33.754Z,25.90
2019-03-22T09:40:00.455Z,26.07
2019-03-22T09:42:26.744Z,27.40
2019-03-22T09:44:53.006Z,25.07
2019-03-22T09:47:19.206Z,27.97
2019-03-22T09:49:45.836Z,29.10
2019-03-22T09:52:12.073Z,27.93
2019-03-22T09:54:38.273Z,27.20
2019-03-22T09:57:04.789Z,25.60
2019-03-22T09:59:31.367Z,25.87
2019-03-22T10:01:57.632Z,28.20
2019-03-22T10:04:27.037Z,27.30
2019-03-22T10:06:53.619Z,25.80
2019-03-22T10:09:19.828Z,26.13
2019-03-22T10:11:46.148Z,27.20
2019-03-22T10:14:12.323Z,27.60
2019-03-22T10:16:38.632Z,27.80
2019-03-22T10:19:04.842Z,27.80
2019-03-22T10:21:31.081Z,26.33
2019-03-22T10:23:57.325Z,28.27
2019-03-22T10:26:23.617Z,28.20
2019-03-22T10:28:49.829Z,26.70
2019-03-22T10:31:16.479Z,29.20
2019-03-22T10:33:42.727Z,28.87
2019-03-22T10:36:09.076Z,27.00
2019-03-22T10:38:35.319Z,27.00
2019-03-22T10:41:01.575Z,28.37
2019-03-22T10:43:27.893Z,29.83
2019-03-22T10:45:54.263Z,28.77
2019-03-22T10:48:20.492Z,29.23
2019-03-22T10:50:46.734Z,30.80
2019-03-22T10:53:12.962Z,30.50
2019-03-22T10:55:39.211Z,28.87
2019-03-22T10:58:19.750Z,29.43
2019-03-22T11:00:33.635Z,28.93
2019-03-22T11:02:59.847Z,28.60
2019-03-22T11:05:26.062Z,29.20
2019-03-22T11:07:52.309Z,28.93
2019-03-22T11:10:18.827Z,28.57
2019-03-22T11:12:45.085Z,28.17
2019-03-22T11:15:12.528Z,29.03
2019-03-22T11:17:38.744Z,28.43
2019-03-22T11:20:07.988Z,28.60
2019-03-22T11:22:34.216Z,28.90
2019-03-22T11:25:00.466Z,29.83
2019-03-22T11:27:26.683Z,29.10
2019-03-22T11:29:52.903Z,29.87
2019-03-22T11:32:20.432Z,32.43
2019-03-22T11:34:46.650Z,30.13
2019-03-22T11:37:13.420Z,30.23
2019-03-22T11:39:40.804Z,30.80
2019-03-22T11:42:07.996Z,33.50
2019-03-22T11:44:34.211Z,34.13
2019-03-22T11:47:00.760Z,31.70
2019-03-22T11:49:27.149Z,31.87
2019-03-22T11:51:53.347Z,33.03
2019-03-22T11:54:19.600Z,31.27
2019-03-22T11:56:46.187Z,32.50
2019-03-22T11:59:12.407Z,31.87
2019-03-22T12:01:38.653Z,31.77
2019-03-22T12:04:04.880Z,32.57
2019-03-22T12:06:31.099Z,32.93
2019-03-22T12:08:57.318Z,31.50
2019-03-22T12:11:23.576Z,35.03
2019-03-22T12:13:50.086Z,34.17
2019-03-22T12:16:16.257Z,34.23
2019-03-22T12:18:42.647Z,32.43
2019-03-22T12:21:09.300Z,33.53
2019-03-22T12:23:35.539Z,34.23
2019-03-22T12:26:02.062Z,33.73
2019-03-22T12:28:28.284Z,34.17
2019-03-22T12:30:55.036Z,31.03
2019-03-22T12:33:21.775Z,33.17
2019-03-22T12:35:48.023Z,34.73
2019-03-22T12:38:14.244Z,34.10
2019-03-22T12:40:40.507Z,34.70
2019-03-22T12:43:06.947Z,33.13
2019-03-22T12:45:33.863Z,32.37
2019-03-22T12:48:00.246Z,32.47
2019-03-22T12:50:26.963Z,34.27
2019-03-22T12:52:53.518Z,34.53
2019-03-22T12:55:20.062Z,34.43
2019-03-22T12:57:46.811Z,34.93
2019-03-22T13:00:23.703Z,35.50
2019-03-22T13:02:50.635Z,34.90
2019-03-22T13:05:17.274Z,37.13
2019-03-22T13:07:43.610Z,36.80
2019-03-22T13:10:16.405Z,36.90
2019-03-22T13:12:42.631Z,36.30
2019-03-22T13:15:09.195Z,35.40
2019-03-22T13:17:35.845Z,34.63
2019-03-22T13:20:05.353Z,35.30
2019-03-22T13:22:31.583Z,36.70
2019-03-22T13:24:57.815Z,38.73
2019-03-22T13:27:24.043Z,34.90
2019-03-22T13:29:50.292Z,38.10
2019-03-22T13:32:16.503Z,36.20
2019-03-22T13:34:42.758Z,35.10
2019-03-22T13:37:08.983Z,37.30
2019-03-22T13:39:35.211Z,35.00
2019-03-22T13:42:01.468Z,36.90
2019-03-22T13:44:27.703Z,36.90
2019-03-22T13:46:53.959Z,37.57
2019-03-22T13:49:20.184Z,35.20
2019-03-22T13:51:46.813Z,36.20
2019-03-22T13:54:13.137Z,37.73
2019-03-22T13:56:39.368Z,38.10
2019-03-22T13:59:05.896Z,36.27
2019-03-22T14:01:32.428Z,39.30
2019-03-22T14:03:58.657Z,38.60
2019-03-22T14:06:24.897Z,37.30
2019-03-22T14:08:51.116Z,36.93
2019-03-22T14:11:17.742Z,38.47
2019-03-22T14:13:44.485Z,38.27
2019-03-22T14:16:10.723Z,37.97
2019-03-22T14:18:37.259Z,39.30
2019-03-22T14:21:03.496Z,38.67
2019-03-22T14:23:29.843Z,38.03
2019-03-22T14:25:56.159Z,39.07
2019-03-22T14:28:22.406Z,38.23
2019-03-22T14:30:48.955Z,38.10
2019-03-22T14:33:15.198Z,38.20
2019-03-22T14:35:41.422Z,39.13
2019-03-22T14:38:07.633Z,37.17
2019-03-22T14:40:33.873Z,37.73
2019-03-22T14:43:00.124Z,37.07
2019-03-22T14:45:26.379Z,38.70
2019-03-22T14:47:52.588Z,38.30
2019-03-22T14:50:18.840Z,38.77
2019-03-22T14:52:45.071Z,37.57
2019-03-22T14:55:11.586Z,38.13
2019-03-22T14:57:47.830Z,37.13
2019-03-22T15:00:08.839Z,36.20
2019-03-22T15:02:35.079Z,38.27
2019-03-22T15:05:01.464Z,37.47
2019-03-22T15:07:27.750Z,37.13
2019-03-22T15:09:53.975Z,37.70
2019-03-22T15:12:20.394Z,37.87
2019-03-22T15:15:01.365Z,37.47
2019-03-22T15:17:38.755Z,37.03
2019-03-22T15:20:10.332Z,37.97
2019-03-22T15:22:41.296Z,37.47
2019-03-22T15:25:25.470Z,36.90
2019-03-22T15:27:59.697Z,37.47
2019-03-22T15:30:42.954Z,35.33
2019-03-22T15:33:20.154Z,35.07
2019-03-22T15:35:57.238Z,36.47
2019-03-22T15:38:25.595Z,38.80
2019-03-22T15:40:51.904Z,36.13
2019-03-22T15:43:18.160Z,38.47
2019-03-22T15:45:44.747Z,36.73
2019-03-22T15:48:11.271Z,38.17
2019-03-22T15:50:37.492Z,40.77
2019-03-22T15:53:03.932Z,37.63
2019-03-22T15:55:30.153Z,37.50
2019-03-22T15:57:56.402Z,37.73
2019-03-22T16:00:22.915Z,38.03
2019-03-22T16:02:49.175Z,39.30
2019-03-22T16:05:15.803Z,37.93
2019-03-22T16:07:42.345Z,37.37
2019-03-22T16:10:10.255Z,37.20
2019-03-22T16:12:36.495Z,36.70
2019-03-22T16:15:06.538Z,38.00
2019-03-22T16:17:32.794Z,37.63
2019-03-22T16:19:59.023Z,36.50
2019-03-22T16:22:25.264Z,39.53
2019-03-22T16:24:51.526Z,40.60
2019-03-22T16:27:17.749Z,37.07
2019-03-22T16:29:43.993Z,40.60
2019-03-22T16:32:10.229Z,38.03
2019-03-22T16:34:36.466Z,36.33
2019-03-22T16:37:03.145Z,38.73
2019-03-22T16:39:29.403Z,38.53
2019-03-22T16:41:55.648Z,38.13
2019-03-22T16:44:22.293Z,39.23
2019-03-22T16:46:48.743Z,38.20
2019-03-22T16:49:15.023Z,39.73
2019-03-22T16:51:41.263Z,35.80
2019-03-22T16:54:07.503Z,38.40
2019-03-22T16:56:33.749Z,40.07
2019-03-22T16:58:59.969Z,39.63
2019-03-22T17:01:26.320Z,38.50
2019-03-22T17:03:52.609Z,37.07
2019-03-22T17:06:19.365Z,35.47
2019-03-22T17:08:46.002Z,38.10
2019-03-22T17:11:12.244Z,38.77
2019-03-22T17:13:38.836Z,39.57
2019-03-22T17:16:05.084Z,39.93
2019-03-22T17:18:31.318Z,39.93
2019-03-22T17:20:57.560Z,39.17
2019-03-22T17:23:23.808Z,38.47
2019-03-22T17:25:50.014Z,41.13
2019-03-22T17:28:16.262Z,39.30
2019-03-22T17:30:42.857Z,39.53
2019-03-22T17:33:09.392Z,39.57
2019-03-22T17:35:35.620Z,39.97
2019-03-22T17:38:02.040Z,39.47
2019-03-22T17:40:28.280Z,40.90
2019-03-22T17:42:54.951Z,39.23
2019-03-22T17:45:21.332Z,37.57
2019-03-22T17:47:47.603Z,34.03
2019-03-22T17:50:15.142Z,38.20
2019-03-22T17:52:41.338Z,40.00
2019-03-22T17:55:09.477Z,36.60
2019-03-22T17:57:35.695Z,37.30
2019-03-22T18:00:04.921Z,37.70
2019-03-22T18:02:31.136Z,39.07
2019-03-22T18:04:57.372Z,38.87
2019-03-22T18:07:23.639Z,39.53
2019-03-22T18:09:49.882Z,39.90
2019-03-22T18:12:16.138Z,37.00
2019-03-22T18:14:42.777Z,40.70
2019-03-22T18:17:09.395Z,38.77
2019-03-22T18:19:35.623Z,37.47
2019-03-22T18:22:01.882Z,38.10
2019-03-22T18:24:28.561Z,38.63
2019-03-22T18:26:55.592Z,37.63
2019-03-22T18:29:22.156Z,38.77
2019-03-22T18:31:48.492Z,39.27
2019-03-22T18:34:14.746Z,39.33
2019-03-22T18:36:41.369Z,37.70
2019-03-22T18:39:07.575Z,39.60
2019-03-22T18:41:33.959Z,40.07
2019-03-22T18:44:00.390Z,39.10
2019-03-22T18:46:26.770Z,40.37
2019-03-22T18:48:53.385Z,40.30
2019-03-22T18:51:19.748Z,39.50
2019-03-22T18:53:46.143Z,40.07
2019-03-22T18:56:12.507Z,40.93
2019-03-22T18:58:38.858Z,38.27
2019-03-22T19:01:05.424Z,38.37
2019-03-22T19:03:32.201Z,41.33
2019-03-22T19:05:58.581Z,39.70
2019-03-22T19:08:25.464Z,39.10
2019-03-22T19:10:57.400Z,38.33
2019-03-22T19:13:30.668Z,39.57
2019-03-22T19:15:52.041Z,40.20
2019-03-22T19:18:18.322Z,38.43
2019-03-22T19:20:44.581Z,39.27
2019-03-22T19:23:10.983Z,37.77
2019-03-22T19:25:37.338Z,40.37
2019-03-22T19:28:04.197Z,37.90
2019-03-22T19:30:30.908Z,38.17
2019-03-22T19:32:57.250Z,38.90
2019-03-22T19:35:23.935Z,38.00
2019-03-22T19:37:52.763Z,39.53
2019-03-22T19:40:19.345Z,39.37
2019-03-22T19:42:46.191Z,38.13
2019-03-22T19:45:14.192Z,39.30
2019-03-22T19:47:40.719Z,40.30
2019-03-22T19:50:14.512Z,38.87
2019-03-22T19:52:43.982Z,38.80
2019-03-22T19:55:11.309Z,39.40
2019-03-22T19:57:37.879Z,39.20
2019-03-22T20:00:12.124Z,41.03
2019-03-22T20:02:38.424Z,39.43
2019-03-22T20:05:07.433Z,39.20
2019-03-22T20:07:34.184Z,39.17
2019-03-22T20:10:00.568Z,37.30
2019-03-22T20:12:26.996Z,39.60
2019-03-22T20:14:53.305Z,40.97
2019-03-22T20:17:19.900Z,41.23
2019-03-22T20:19:46.549Z,41.03
2019-03-22T20:22:13.115Z,39.30
2019-03-22T20:24:39.447Z,39.33
2019-03-22T20:27:06.585Z,40.00
2019-03-22T20:29:33.102Z,39.30
2019-03-22T20:31:59.694Z,40.97
2019-03-22T20:34:26.151Z,41.90
2019-03-22T20:36:52.725Z,39.80
2019-03-22T20:39:23.328Z,40.93
2019-03-22T20:41:49.897Z,41.03
2019-03-22T20:44:16.724Z,40.33
2019-03-22T20:46:43.188Z,41.20
2019-03-22T20:49:09.579Z,41.53
2019-03-22T20:51:37.892Z,43.10
2019-03-22T20:54:04.291Z,41.57
2019-03-22T20:56:30.748Z,41.47
2019-03-22T20:58:57.215Z,43.30
2019-03-22T21:01:23.646Z,40.10
2019-03-22T21:03:50.174Z,42.23
2019-03-22T21:06:16.652Z,40.27
2019-03-22T21:08:42.958Z,41.17
2019-03-22T21:11:09.512Z,44.30
2019-03-22T21:13:36.014Z,40.53
2019-03-22T21:16:02.550Z,42.93
2019-03-22T21:18:29.350Z,41.47
2019-03-22T21:20:56.915Z,41.70
2019-03-22T21:23:23.543Z,39.10
2019-03-22T21:25:50.029Z,40.50
2019-03-22T21:28:16.727Z,39.97
2019-03-22T21:30:43.649Z,41.00
2019-03-22T21:33:10.209Z,42.40
2019-03-22T21:35:37.549Z,42.87
2019-03-22T21:38:10.802Z,41.77
2019-03-22T21:40:32.572Z,42.70
2019-03-22T21:42:59.182Z,42.90
2019-03-22T21:45:25.625Z,41.07
2019-03-22T21:47:52.085Z,40.93
2019-03-22T21:50:18.493Z,42.53
2019-03-22T21:52:45.249Z,43.63
2019-03-22T21:55:11.968Z,41.63
2019-03-22T21:57:38.398Z,43.10
2019-03-22T22:00:10.936Z,44.20
2019-03-22T22:02:37.735Z,42.80
2019-03-22T22:05:05.438Z,44.83
2019-03-22T22:07:32.289Z,42.17
2019-03-22T22:09:58.833Z,43.27
2019-03-22T22:12:25.511Z,42.83
2019-03-22T22:14:51.917Z,41.87
2019-03-22T22:17:18.594Z,41.63
2019-03-22T22:20:05.192Z,43.27
2019-03-22T22:22:31.418Z,44.57
2019-03-22T22:24:57.676Z,44.10
2019-03-22T22:27:24.284Z,43.60
2019-03-22T22:29:50.524Z,41.90
2019-03-22T22:32:16.776Z,41.73
2019-03-22T22:34:43.013Z,43.70
2019-03-22T22:37:09.318Z,42.30
2019-03-22T22:39:36.878Z,43.40
2019-03-22T22:42:03.691Z,43.00
2019-03-22T22:44:30.300Z,43.63
2019-03-22T22:46:56.524Z,41.63
2019-03-22T22:49:23.067Z,41.00
2019-03-22T22:51:49.608Z,41.77
2019-03-22T22:54:15.832Z,44.20
2019-03-22T22:56:42.056Z,44.80
2019-03-22T22:59:08.330Z,41.47
2019-03-22T23:01:34.863Z,42.93
2019-03-22T23:04:01.099Z,39.47
2019-03-22T23:06:27.819Z,42.47
2019-03-22T23:08:54.178Z,42.27
2019-03-22T23:11:22.434Z,43.20
2019-03-22T23:13:48.681Z,41.80
2019-03-22T23:16:15.277Z,43.40
2019-03-22T23:18:41.527Z,42.60
2019-03-22T23:21:07.752Z,44.57
2019-03-22T23:23:34.024Z,43.57
2019-03-22T23:26:00.249Z,42.87
2019-03-22T23:28:26.496Z,44.00
2019-03-22T23:30:53.269Z,42.43
2019-03-22T23:33:19.507Z,43.90
2019-03-22T23:35:46.023Z,41.87
2019-03-22T23:38:12.557Z,45.00
2019-03-22T23:40:38.825Z,43.30
2019-03-22T23:43:05.040Z,44.50
2019-03-22T23:45:31.309Z,42.00
2019-03-22T23:47:57.889Z,44.20
2019-03-22T23:50:24.102Z,42.77
2019-03-22T23:52:50.345Z,42.97
2019-03-22T23:55:16.570Z,45.30
2019-03-22T23:57:43.098Z,42.83
